createdAt,value
2022-08-17T00:02:26.793Z,21.86
2022-08-17T00:05:31.557Z,21.85
2022-08-17T00:08:43.986Z,21.62
2022-08-17T00:12:35.510Z,21.60
2022-08-17T00:15:15.163Z,21.57
2022-08-17T00:19:06.994Z,21.61
2022-08-17T00:22:29.462Z,21.59
2022-08-17T00:25:15.005Z,21.56
2022-08-17T00:28:18.174Z,21.61
2022-08-17T00:31:24.792Z,21.58
2022-08-17T00:34:28.847Z,21.56
2022-08-17T00:37:35.174Z,21.49
2022-08-17T00:40:45.517Z,21.33
2022-08-17T00:43:52.108Z,21.37
2022-08-17T00:46:56.260Z,21.31
2022-08-17T00:49:59.286Z,21.30
2022-08-17T00:53:04.690Z,21.31
2022-08-17T00:56:12.959Z,21.30
2022-08-17T00:59:19.287Z,21.31
2022-08-17T01:02:24.101Z,21.26
2022-08-17T01:05:31.643Z,21.25
2022-08-17T01:08:36.472Z,21.08
2022-08-17T01:11:40.787Z,21.00
2022-08-17T01:14:44.130Z,20.98
2022-08-17T01:17:48.154Z,20.83
2022-08-17T01:20:53.989Z,20.91
2022-08-17T01:23:57.233Z,20.84
2022-08-17T01:27:00.612Z,20.76
2022-08-17T01:30:57.329Z,20.68
2022-08-17T01:33:31.015Z,20.76
2022-08-17T01:36:33.783Z,20.73
2022-08-17T01:39:42.235Z,20.72
2022-08-17T01:42:50.644Z,20.70
2022-08-17T01:46:02.507Z,20.62
2022-08-17T01:49:08.766Z,20.62
2022-08-17T01:52:12.550Z,20.56
2022-08-17T01:55:18.075Z,20.56
2022-08-17T01:58:21.505Z,20.59
2022-08-17T02:01:30.840Z,20.63
2022-08-17T02:04:35.089Z,20.58
2022-08-17T02:07:59.442Z,20.55
2022-08-17T02:11:12.172Z,20.56
2022-08-17T02:14:15.202Z,20.48
2022-08-17T02:17:18.250Z,20.45
2022-08-17T02:20:41.764Z,20.46
2022-08-17T02:23:47.566Z,20.42
2022-08-17T02:26:50.513Z,20.38
2022-08-17T02:29:53.731Z,20.37
2022-08-17T02:32:56.524Z,20.37
2022-08-17T02:35:59.910Z,20.33
2022-08-17T02:39:07.077Z,20.24
2022-08-17T02:42:10.211Z,20.17
2022-08-17T02:45:19.360Z,20.14
2022-08-17T02:48:30.423Z,20.00
2022-08-17T02:51:35.392Z,19.99
2022-08-17T02:54:42.291Z,19.99
2022-08-17T02:57:45.595Z,19.95
2022-08-17T03:00:49.066Z,19.91
2022-08-17T03:03:51.847Z,19.90
2022-08-17T03:06:54.904Z,19.81
2022-08-17T03:09:57.691Z,19.75
2022-08-17T03:13:01.410Z,19.83
2022-08-17T03:16:04.330Z,19.82
2022-08-17T03:19:07.506Z,19.84
2022-08-17T03:22:36.518Z,19.80
2022-08-17T03:25:46.090Z,19.78
2022-08-17T03:28:49.059Z,19.76
2022-08-17T03:31:52.506Z,19.71
2022-08-17T03:34:59.831Z,19.66
2022-08-17T03:38:04.631Z,19.67
2022-08-17T03:41:09.037Z,19.69
2022-08-17T03:44:12.102Z,19.72
2022-08-17T03:47:33.853Z,19.70
2022-08-17T03:50:55.849Z,19.69
2022-08-17T03:54:18.908Z,19.68
2022-08-17T03:57:22.569Z,19.69
2022-08-17T04:00:25.393Z,19.74
2022-08-17T04:03:28.868Z,19.71
2022-08-17T04:06:31.590Z,19.74
2022-08-17T04:09:36.665Z,19.77
2022-08-17T04:12:43.375Z,19.81
2022-08-17T04:15:49.324Z,19.86
2022-08-17T04:18:52.649Z,19.81
2022-08-17T04:21:58.037Z,19.77
2022-08-17T04:25:18.117Z,19.83
2022-08-17T04:28:21.189Z,19.81
2022-08-17T04:31:24.089Z,19.84
2022-08-17T04:34:29.142Z,19.80
2022-08-17T04:37:31.922Z,19.82
2022-08-17T04:40:53.331Z,19.83
2022-08-17T04:43:58.565Z,19.88
2022-08-17T04:47:01.727Z,19.95
2022-08-17T04:50:04.958Z,19.96
2022-08-17T04:53:08.012Z,20.03
2022-08-17T04:56:16.603Z,20.04
2022-08-17T04:59:21.698Z,20.01
2022-08-17T05:02:24.523Z,20.19
2022-08-17T05:05:34.070Z,20.23
2022-08-17T05:08:40.015Z,20.34
2022-08-17T05:11:44.954Z,20.39
2022-08-17T05:14:48.012Z,20.51
2022-08-17T05:17:51.167Z,20.49
2022-08-17T05:20:54.706Z,20.65
2022-08-17T05:23:58.770Z,20.84
2022-08-17T05:27:06.702Z,20.90
2022-08-17T05:30:10.242Z,21.22
2022-08-17T05:33:26.469Z,21.46
2022-08-17T05:36:43.660Z,21.39
2022-08-17T05:39:47.335Z,21.61
2022-08-17T05:42:50.896Z,21.86
2022-08-17T05:46:02.100Z,21.93
2022-08-17T05:49:12.039Z,21.92
2022-08-17T05:52:48.545Z,22.06
2022-08-17T05:56:29.722Z,21.90
2022-08-17T05:59:33.047Z,22.31
2022-08-17T06:02:48.533Z,22.45
2022-08-17T06:06:04.188Z,22.50
2022-08-17T06:09:33.662Z,22.41
2022-08-17T06:13:19.766Z,22.49
2022-08-17T06:16:34.167Z,22.65
2022-08-17T06:19:50.020Z,22.96
2022-08-17T06:22:56.669Z,22.95
2022-08-17T06:26:03.955Z,23.14
2022-08-17T06:29:18.894Z,23.20
2022-08-17T06:32:23.065Z,23.25
2022-08-17T06:35:34.078Z,23.44
2022-08-17T06:39:17.247Z,23.53
2022-08-17T06:42:55.078Z,23.80
2022-08-17T06:46:20.018Z,23.70
2022-08-17T06:49:27.111Z,23.45
2022-08-17T06:52:45.268Z,23.96
2022-08-17T06:56:07.622Z,23.69
2022-08-17T06:59:17.669Z,24.06
2022-08-17T07:02:29.327Z,24.20
2022-08-17T07:05:58.463Z,24.18
2022-08-17T07:09:07.268Z,24.43
2022-08-17T07:12:22.230Z,24.34
2022-08-17T07:15:34.190Z,24.62
2022-08-17T07:18:37.531Z,24.25
2022-08-17T07:22:00.193Z,24.65
2022-08-17T07:25:08.150Z,24.94
2022-08-17T07:28:12.132Z,24.69
2022-08-17T07:31:17.718Z,24.87
2022-08-17T07:34:20.731Z,24.91
2022-08-17T07:37:23.818Z,25.30
2022-08-17T07:40:33.768Z,25.27
2022-08-17T07:43:39.983Z,25.39
2022-08-17T07:47:10.535Z,25.57
2022-08-17T07:50:40.180Z,25.70
2022-08-17T07:53:43.004Z,25.77
2022-08-17T07:57:01.613Z,25.70
2022-08-17T08:00:17.002Z,25.91
2022-08-17T08:03:32.056Z,26.24
2022-08-17T08:06:47.652Z,26.25
2022-08-17T08:10:28.496Z,26.41
2022-08-17T08:13:32.502Z,26.42
2022-08-17T08:16:36.891Z,26.81
2022-08-17T08:19:40.171Z,26.91
2022-08-17T08:22:49.336Z,27.10
2022-08-17T08:26:18.884Z,27.17
2022-08-17T08:29:34.003Z,27.23
2022-08-17T08:32:39.741Z,27.58
2022-08-17T08:35:55.327Z,27.23
2022-08-17T08:39:04.596Z,27.18
2022-08-17T08:42:10.597Z,27.45
2022-08-17T08:45:42.845Z,27.66
2022-08-17T08:48:58.135Z,27.73
2022-08-17T08:52:04.152Z,28.07
2022-08-17T08:55:07.902Z,28.05
2022-08-17T08:58:41.790Z,28.17
2022-08-17T09:01:48.306Z,28.34
2022-08-17T09:05:15.987Z,28.47
2022-08-17T09:08:47.359Z,28.45
2022-08-17T09:12:04.052Z,28.77
2022-08-17T09:15:21.628Z,29.01
2022-08-17T09:19:00.954Z,29.12
2022-08-17T09:21:56.062Z,29.00
2022-08-17T09:25:21.884Z,29.32
2022-08-17T09:28:34.809Z,29.45
2022-08-17T09:31:49.395Z,29.42
2022-08-17T09:34:56.788Z,29.39
2022-08-17T09:38:03.854Z,29.28
2022-08-17T09:41:22.684Z,29.35
2022-08-17T09:44:38.677Z,29.87
2022-08-17T09:47:48.642Z,30.03
2022-08-17T09:51:19.491Z,30.22
2022-08-17T09:54:42.775Z,30.16
2022-08-17T09:58:09.430Z,30.12
2022-08-17T10:01:34.987Z,30.19
2022-08-17T10:04:54.203Z,30.52
2022-08-17T10:08:24.489Z,30.45
2022-08-17T10:12:02.757Z,30.50
2022-08-17T10:15:24.533Z,30.43
2022-08-17T10:27:23.061Z,31.19
2022-08-17T10:51:09.120Z,31.23
2022-08-17T11:23:40.219Z,33.00
2022-08-17T11:43:27.493Z,33.36
2022-08-17T13:09:07.502Z,35.91
2022-08-17T14:06:52.979Z,39.12
2022-08-17T14:10:20.663Z,38.67
2022-08-17T14:55:42.625Z,40.24
2022-08-17T14:59:22.675Z,41.05
2022-08-17T15:02:32.484Z,40.39
2022-08-17T15:05:57.425Z,40.07
2022-08-17T15:37:01.137Z,39.52
2022-08-17T15:51:38.539Z,40.68
2022-08-17T16:03:45.011Z,39.36
2022-08-17T16:07:26.706Z,40.64
2022-08-17T16:15:09.548Z,41.53
2022-08-17T16:26:37.023Z,39.86
2022-08-17T22:26:05.424Z,24.61
2022-08-17T22:29:44.598Z,24.64
2022-08-17T22:32:48.563Z,24.58
2022-08-17T22:36:22.027Z,24.60
2022-08-17T22:39:26.303Z,24.66
2022-08-17T22:42:29.418Z,24.76
2022-08-17T22:45:33.663Z,24.82
2022-08-17T22:48:37.206Z,24.71
2022-08-17T22:51:40.351Z,24.57
2022-08-17T22:55:12.830Z,24.43
2022-08-17T22:58:38.100Z,24.44
2022-08-17T23:01:42.993Z,24.25
2022-08-17T23:05:16.906Z,24.10
2022-08-17T23:08:21.484Z,24.04
2022-08-17T23:11:36.821Z,23.96
2022-08-17T23:14:51.528Z,23.83
2022-08-17T23:17:54.602Z,23.77
2022-08-17T23:20:57.770Z,23.79
2022-08-17T23:24:01.561Z,23.76
2022-08-17T23:27:07.696Z,23.73
2022-08-17T23:30:12.142Z,23.64
2022-08-17T23:33:30.050Z,23.62
2022-08-17T23:36:33.592Z,23.47
2022-08-17T23:39:37.622Z,23.48
2022-08-17T23:42:46.247Z,23.44
2022-08-17T23:45:50.422Z,23.39
2022-08-17T23:48:54.231Z,23.41
2022-08-17T23:52:00.446Z,23.51
2022-08-17T23:55:04.277Z,23.72
2022-08-17T23:58:07.760Z,23.78
